Time;durP1;ratioP1;P1;durP2;ratioP2;P2;SDS_P1;SDS_P2;PMS_P1;PMS_P2;Temp;Humidity;BMP_temperature;BMP_pressure;BME280_temperature;BME280_humidity;BME280_pressure;Samples;Min_cycle;Max_cycle;Signal;HPM_P1;HPM_P2
2022/01/29 00:00:26;;;;;;;6.13;5.53;;;;;;;;;;5013210;28;20199;-67
2022/01/29 00:03:06;;;;;;;6.93;5.97;;;;;;;;;;5022785;28;20558;-67
2022/01/29 00:05:36;;;;;;;6.43;5.53;;;;;;;;;;5021484;28;20199;-67
2022/01/29 00:08:05;;;;;;;6.80;5.77;;;;;;;;;;5025508;28;20261;-67
2022/01/29 00:10:34;;;;;;;6.20;5.60;;;;;;;;;;5027780;28;20844;-66
2022/01/29 00:13:04;;;;;;;6.47;5.63;;;;;;;;;;5023374;28;20532;-67
2022/01/29 00:15:37;;;;;;;6.17;5.57;;;;;;;;;;5027382;28;20203;-67
2022/01/29 00:18:06;;;;;;;6.33;5.73;;;;;;;;;;5028753;28;20230;-67
2022/01/29 00:20:36;;;;;;;6.40;5.80;;;;;;;;;;5032855;28;20206;-67
2022/01/29 00:23:05;;;;;;;7.37;5.63;;;;;;;;;;5031215;28;20214;-67
2022/01/29 00:25:32;;;;;;;6.10;5.33;;;;;;;;;;5035115;28;20210;-67
2022/01/29 00:28:00;;;;;;;6.90;6.20;;;;;;;;;;5038247;28;20225;-67
2022/01/29 00:30:37;;;;;;;6.10;5.43;;;;;;;;;;5035628;28;20223;-67
2022/01/29 00:33:10;;;;;;;6.43;5.83;;;;;;;;;;5034016;28;20199;-67
2022/01/29 00:35:42;;;;;;;6.90;6.00;;;;;;;;;;5013848;28;20216;-67
2022/01/29 00:38:15;;;;;;;6.40;5.80;;;;;;;;;;5030201;28;20641;-67
2022/01/29 00:40:47;;;;;;;6.00;5.40;;;;;;;;;;5014817;28;20574;-67
2022/01/29 00:43:30;;;;;;;7.27;6.13;;;;;;;;;;5034423;28;20223;-67
2022/01/29 00:46:03;;;;;;;6.23;5.63;;;;;;;;;;5026914;28;20644;-67
2022/01/29 00:48:32;;;;;;;6.50;5.73;;;;;;;;;;5030912;28;20560;-67
2022/01/29 00:51:02;;;;;;;7.20;6.37;;;;;;;;;;5023583;28;20264;-67
2022/01/29 00:53:45;;;;;;;6.60;5.90;;;;;;;;;;5029598;28;20242;-67
2022/01/29 00:56:15;;;;;;;7.90;6.43;;;;;;;;;;5027779;28;20199;-67
2022/01/29 00:58:46;;;;;;;7.93;6.43;;;;;;;;;;5031340;28;20230;-67
2022/01/29 01:01:20;;;;;;;6.53;5.80;;;;;;;;;;5028295;28;20207;-67
2022/01/29 01:03:51;;;;;;;7.07;6.37;;;;;;;;;;5029196;28;20195;-68
2022/01/29 01:06:20;;;;;;;6.73;5.60;;;;;;;;;;5028667;28;20208;-67
2022/01/29 01:08:51;;;;;;;8.40;6.03;;;;;;;;;;5029898;28;20257;-67
2022/01/29 01:11:19;;;;;;;7.40;6.33;;;;;;;;;;5015610;28;20211;-67
2022/01/29 01:13:50;;;;;;;6.60;5.87;;;;;;;;;;5032775;28;20207;-67
2022/01/29 01:16:23;;;;;;;8.53;6.77;;;;;;;;;;5031363;28;20203;-67
2022/01/29 01:18:52;;;;;;;7.63;6.50;;;;;;;;;;5027693;28;20230;-67
2022/01/29 01:21:24;;;;;;;7.67;6.40;;;;;;;;;;5011712;28;20222;-67
2022/01/29 01:23:56;;;;;;;6.93;6.23;;;;;;;;;;5030804;28;20199;-67
2022/01/29 01:26:26;;;;;;;7.80;6.50;;;;;;;;;;5023305;28;20212;-67
2022/01/29 01:29:00;;;;;;;7.57;6.80;;;;;;;;;;5017612;28;20234;-68
2022/01/29 01:31:29;;;;;;;8.30;6.70;;;;;;;;;;5029564;28;20203;-67
2022/01/29 01:34:00;;;;;;;6.87;6.17;;;;;;;;;;5024667;28;20230;-68
2022/01/29 01:36:31;;;;;;;6.97;6.27;;;;;;;;;;5028779;28;20207;-67
2022/01/29 01:39:06;;;;;;;7.30;6.40;;;;;;;;;;5026495;28;20243;-67
2022/01/29 01:41:41;;;;;;;7.03;6.30;;;;;;;;;;5045087;28;20254;-68
2022/01/29 01:44:17;;;;;;;7.20;6.50;;;;;;;;;;5039736;28;20191;-67
2022/01/29 01:47:13;;;;;;;7.60;6.67;;;;;;;;;;5031022;28;20221;-67
2022/01/29 01:49:43;;;;;;;7.23;6.00;;;;;;;;;;5032123;28;20195;-67
2022/01/29 01:52:15;;;;;;;7.13;6.00;;;;;;;;;;5035110;28;20792;-67
2022/01/29 01:54:47;;;;;;;7.00;6.23;;;;;;;;;;5025789;28;20199;-67
2022/01/29 01:57:29;;;;;;;7.83;6.13;;;;;;;;;;5039630;28;20215;-67
2022/01/29 02:00:05;;;;;;;6.43;5.83;;;;;;;;;;5029714;28;20238;-67
2022/01/29 02:02:36;;;;;;;8.70;5.93;;;;;;;;;;5029050;28;20199;-68
2022/01/29 02:05:08;;;;;;;10.03;6.20;;;;;;;;;;5033279;28;20206;-67
2022/01/29 02:07:37;;;;;;;7.27;6.37;;;;;;;;;;4994387;28;20628;-68
2022/01/29 02:10:09;;;;;;;6.43;5.70;;;;;;;;;;5006256;28;20223;-67
2022/01/29 02:12:57;;;;;;;6.60;5.90;;;;;;;;;;5013273;28;20196;-67
2022/01/29 02:15:30;;;;;;;7.73;6.17;;;;;;;;;;5021571;28;20191;-68
2022/01/29 02:18:04;;;;;;;5.57;4.97;;;;;;;;;;5027275;28;20210;-67
2022/01/29 02:20:34;;;;;;;7.93;6.17;;;;;;;;;;5027329;28;20198;-68
2022/01/29 02:23:03;;;;;;;6.03;5.33;;;;;;;;;;5023327;28;20252;-67
2022/01/29 02:25:54;;;;;;;7.80;6.10;;;;;;;;;;5027770;28;21822;-68
2022/01/29 02:28:23;;;;;;;8.17;6.20;;;;;;;;;;5027500;28;20206;-67
2022/01/29 02:31:04;;;;;;;6.70;6.10;;;;;;;;;;5025043;28;20187;-67
2022/01/29 02:33:33;;;;;;;7.77;6.40;;;;;;;;;;5027070;28;20211;-67
2022/01/29 02:36:05;;;;;;;6.73;5.87;;;;;;;;;;5021543;28;20241;-67
2022/01/29 02:38:39;;;;;;;6.60;5.40;;;;;;;;;;5013067;28;20219;-67
2022/01/29 02:41:19;;;;;;;7.30;6.10;;;;;;;;;;5007034;28;20919;-67
2022/01/29 02:43:49;;;;;;;6.23;5.60;;;;;;;;;;5006746;28;20194;-67
2022/01/29 02:46:30;;;;;;;6.10;5.50;;;;;;;;;;5003508;28;20278;-67
2022/01/29 02:49:03;;;;;;;6.63;5.97;;;;;;;;;;4988138;28;20202;-67
2022/01/29 02:51:34;;;;;;;5.90;5.40;;;;;;;;;;5007663;28;20629;-67
2022/01/29 02:54:03;;;;;;;6.70;5.80;;;;;;;;;;4989438;28;20200;-67
2022/01/29 02:56:39;;;;;;;6.70;5.47;;;;;;;;;;5002864;28;20208;-67
2022/01/29 02:59:09;;;;;;;6.40;5.60;;;;;;;;;;5002022;28;20227;-67
2022/01/29 03:01:42;;;;;;;7.30;5.37;;;;;;;;;;5005593;28;20202;-67
2022/01/29 03:04:12;;;;;;;6.90;5.40;;;;;;;;;;5007159;28;20588;-67
2022/01/29 03:06:45;;;;;;;6.43;5.83;;;;;;;;;;5005479;28;20210;-67
2022/01/29 03:09:16;;;;;;;6.17;5.57;;;;;;;;;;5003921;28;20214;-67
2022/01/29 03:11:45;;;;;;;5.77;5.17;;;;;;;;;;4990075;28;20339;-68
2022/01/29 03:14:14;;;;;;;5.30;4.80;;;;;;;;;;5006423;28;20211;-67
2022/01/29 03:16:45;;;;;;;6.43;5.40;;;;;;;;;;5005702;28;20254;-67
2022/01/29 03:19:15;;;;;;;5.80;5.20;;;;;;;;;;5006154;28;20215;-67
2022/01/29 03:21:46;;;;;;;6.40;5.47;;;;;;;;;;5003224;28;20212;-67
2022/01/29 03:24:17;;;;;;;5.57;5.07;;;;;;;;;;5005500;28;20200;-68
2022/01/29 03:26:47;;;;;;;5.80;5.20;;;;;;;;;;5004235;28;20225;-68
2022/01/29 03:29:17;;;;;;;5.77;5.23;;;;;;;;;;5010109;28;20238;-67
2022/01/29 03:31:46;;;;;;;6.00;5.17;;;;;;;;;;4988650;28;20207;-67
2022/01/29 03:34:18;;;;;;;5.93;5.03;;;;;;;;;;5001704;28;20246;-67
2022/01/29 03:36:47;;;;;;;6.70;5.57;;;;;;;;;;5006229;28;20204;-67
2022/01/29 03:39:19;;;;;;;5.20;4.70;;;;;;;;;;5015805;28;20347;-68
2022/01/29 03:42:02;;;;;;;7.50;5.40;;;;;;;;;;5033380;28;20657;-67
2022/01/29 03:44:42;;;;;;;5.90;5.40;;;;;;;;;;5024326;28;20229;-67
2022/01/29 03:47:13;;;;;;;5.03;4.40;;;;;;;;;;5019391;28;20202;-67
2022/01/29 03:49:44;;;;;;;6.03;5.33;;;;;;;;;;5030151;28;20197;-68
2022/01/29 03:52:12;;;;;;;5.23;4.73;;;;;;;;;;5031926;28;20214;-67
2022/01/29 03:54:43;;;;;;;5.53;4.67;;;;;;;;;;5013489;28;20207;-67
2022/01/29 03:57:14;;;;;;;5.47;4.93;;;;;;;;;;5028083;28;20730;-67
2022/01/29 03:59:47;;;;;;;5.77;5.13;;;;;;;;;;5030230;28;20249;-68
2022/01/29 04:02:27;;;;;;;5.40;4.90;;;;;;;;;;5031018;28;20253;-67
2022/01/29 04:04:57;;;;;;;5.33;4.83;;;;;;;;;;5027988;28;20206;-68
2022/01/29 04:07:28;;;;;;;5.00;4.50;;;;;;;;;;5023432;28;20209;-67
2022/01/29 04:09:59;;;;;;;8.10;4.63;;;;;;;;;;5028311;28;20231;-67
2022/01/29 04:12:34;;;;;;;6.10;4.30;;;;;;;;;;5034519;28;20272;-67
2022/01/29 04:15:02;;;;;;;4.37;3.97;;;;;;;;;;4998329;28;20199;-67
2022/01/29 04:17:31;;;;;;;5.17;4.67;;;;;;;;;;5032951;28;20246;-67
2022/01/29 04:20:03;;;;;;;5.40;4.47;;;;;;;;;;5030276;28;20211;-67
2022/01/29 04:22:35;;;;;;;4.63;4.13;;;;;;;;;;5028565;28;20626;-67
2022/01/29 04:25:05;;;;;;;5.23;4.60;;;;;;;;;;5024315;28;20204;-68
2022/01/29 04:27:41;;;;;;;4.33;3.70;;;;;;;;;;5028740;28;20230;-67
2022/01/29 04:30:23;;;;;;;4.17;3.77;;;;;;;;;;5029933;28;20209;-67
2022/01/29 04:35:22;;;;;;;5.40;4.20;;;;;;;;;;5032835;28;20301;-68
2022/01/29 04:37:51;;;;;;;4.47;4.07;;;;;;;;;;5012811;28;20227;-67
2022/01/29 04:40:23;;;;;;;4.53;3.80;;;;;;;;;;5033447;28;20249;-67
2022/01/29 04:42:54;;;;;;;4.77;3.73;;;;;;;;;;5031287;28;20200;-67
2022/01/29 04:45:25;;;;;;;4.17;3.77;;;;;;;;;;5029325;28;20291;-67
2022/01/29 04:47:53;;;;;;;4.47;3.93;;;;;;;;;;5030325;28;20197;-67
2022/01/29 04:50:25;;;;;;;4.43;3.63;;;;;;;;;;5030037;28;20440;-67
2022/01/29 04:52:56;;;;;;;4.13;3.30;;;;;;;;;;5028457;28;20235;-67
2022/01/29 04:55:27;;;;;;;4.20;3.60;;;;;;;;;;5045139;28;20222;-67
2022/01/29 04:57:55;;;;;;;4.20;3.83;;;;;;;;;;5026611;28;20219;-67
2022/01/29 05:00:25;;;;;;;4.50;3.83;;;;;;;;;;5035886;28;20233;-67
2022/01/29 05:02:57;;;;;;;4.03;3.30;;;;;;;;;;5027617;28;20293;-67
2022/01/29 05:05:30;;;;;;;4.23;3.33;;;;;;;;;;5020867;28;20204;-68
2022/01/29 05:08:02;;;;;;;3.80;3.40;;;;;;;;;;5028471;28;20196;-67
2022/01/29 05:10:32;;;;;;;4.00;3.37;;;;;;;;;;5011817;28;20538;-67
2022/01/29 05:13:05;;;;;;;3.60;3.30;;;;;;;;;;5006708;28;20458;-68
2022/01/29 05:15:41;;;;;;;4.47;3.70;;;;;;;;;;5035445;28;20202;-67
2022/01/29 05:26:55;;;;;;;3.70;3.33;;;;;;;;;;5013487;28;20199;-68
2022/01/29 05:29:30;;;;;;;3.53;3.23;;;;;;;;;;5035289;28;20256;-67
2022/01/29 05:32:12;;;;;;;3.97;3.57;;;;;;;;;;5029118;28;20282;-68
2022/01/29 05:34:42;;;;;;;3.70;3.33;;;;;;;;;;5033629;28;20206;-68
2022/01/29 05:37:33;;;;;;;3.50;3.20;;;;;;;;;;5030589;28;20199;-68
2022/01/29 05:40:01;;;;;;;4.10;3.67;;;;;;;;;;5031791;28;20239;-68
2022/01/29 05:42:32;;;;;;;3.50;3.20;;;;;;;;;;5013344;28;20231;-67
2022/01/29 05:45:05;;;;;;;3.73;3.43;;;;;;;;;;5026564;28;20222;-67
2022/01/29 05:47:36;;;;;;;3.97;3.53;;;;;;;;;;5026878;28;20195;-67
2022/01/29 05:50:04;;;;;;;3.50;3.20;;;;;;;;;;5010538;28;20211;-67
2022/01/29 05:52:35;;;;;;;3.93;2.73;;;;;;;;;;5023550;28;20206;-68
2022/01/29 05:55:10;;;;;;;4.00;3.17;;;;;;;;;;5008630;28;20203;-67
2022/01/29 05:57:41;;;;;;;3.50;3.20;;;;;;;;;;5025152;28;20668;-67
2022/01/29 06:00:10;;;;;;;3.90;3.60;;;;;;;;;;5026977;28;20219;-67
2022/01/29 06:02:45;;;;;;;3.70;3.20;;;;;;;;;;5027131;28;20298;-67
2022/01/29 06:05:13;;;;;;;3.40;3.10;;;;;;;;;;5027366;28;20199;-67
2022/01/29 06:07:47;;;;;;;3.43;3.13;;;;;;;;;;5027583;28;20273;-67
2022/01/29 06:10:17;;;;;;;3.43;3.13;;;;;;;;;;5024900;28;20246;-68
2022/01/29 06:12:46;;;;;;;4.00;3.60;;;;;;;;;;5028750;28;20462;-67
2022/01/29 06:15:14;;;;;;;3.40;3.10;;;;;;;;;;5025073;28;20187;-67
2022/01/29 06:17:45;;;;;;;3.47;3.17;;;;;;;;;;5026019;28;20669;-68
2022/01/29 06:20:14;;;;;;;3.17;2.87;;;;;;;;;;5025650;28;20211;-68
2022/01/29 06:22:46;;;;;;;3.60;3.30;;;;;;;;;;5026979;28;20212;-67
2022/01/29 06:25:15;;;;;;;5.27;3.47;;;;;;;;;;5026718;28;20284;-69
2022/01/29 06:27:45;;;;;;;4.00;3.67;;;;;;;;;;5021769;28;20211;-68
2022/01/29 06:30:14;;;;;;;4.40;3.63;;;;;;;;;;5027852;28;20273;-68
2022/01/29 06:32:45;;;;;;;3.90;3.50;;;;;;;;;;5025562;28;20233;-68
2022/01/29 06:35:28;;;;;;;3.87;3.57;;;;;;;;;;5024395;28;20199;-69
2022/01/29 06:37:59;;;;;;;4.17;3.60;;;;;;;;;;5026613;28;20203;-68
2022/01/29 06:40:29;;;;;;;3.90;3.60;;;;;;;;;;5030983;28;20671;-68
2022/01/29 06:43:05;;;;;;;5.60;3.83;;;;;;;;;;5032580;28;20695;-68
2022/01/29 06:45:36;;;;;;;4.17;3.50;;;;;;;;;;5032910;28;20222;-67
2022/01/29 06:48:05;;;;;;;4.20;3.87;;;;;;;;;;5037440;28;20788;-68
2022/01/29 06:50:36;;;;;;;5.27;3.27;;;;;;;;;;5028095;28;20195;-68
2022/01/29 06:53:08;;;;;;;3.93;3.50;;;;;;;;;;5023544;28;20206;-69
2022/01/29 06:55:39;;;;;;;3.70;3.40;;;;;;;;;;5027855;28;20249;-68
2022/01/29 06:58:09;;;;;;;3.40;3.10;;;;;;;;;;5003021;28;20237;-68
2022/01/29 07:00:58;;;;;;;3.67;3.37;;;;;;;;;;5032275;28;20234;-68
2022/01/29 07:03:29;;;;;;;4.17;3.77;;;;;;;;;;5025911;28;20199;-68
2022/01/29 07:06:00;;;;;;;3.40;3.10;;;;;;;;;;5033543;28;20198;-68
2022/01/29 07:08:29;;;;;;;3.60;3.30;;;;;;;;;;5028882;28;20230;-67
2022/01/29 07:11:08;;;;;;;3.43;3.07;;;;;;;;;;5039841;28;20245;-67
2022/01/29 07:13:38;;;;;;;3.60;3.30;;;;;;;;;;5027669;28;20195;-68
2022/01/29 07:16:09;;;;;;;3.80;3.50;;;;;;;;;;5040682;28;20198;-68
2022/01/29 07:18:42;;;;;;;3.40;3.20;;;;;;;;;;5016120;28;20716;-69
2022/01/29 07:21:12;;;;;;;3.50;3.20;;;;;;;;;;5031654;28;20238;-70
2022/01/29 07:23:57;;;;;;;4.10;3.23;;;;;;;;;;5026613;28;20543;-69
2022/01/29 07:26:26;;;;;;;3.13;2.93;;;;;;;;;;5034154;28;20611;-69
2022/01/29 07:28:58;;;;;;;3.10;2.80;;;;;;;;;;4998577;28;20207;-68
2022/01/29 07:31:30;;;;;;;3.30;3.00;;;;;;;;;;5037167;28;20534;-68
2022/01/29 07:34:00;;;;;;;3.47;3.17;;;;;;;;;;5038756;28;20218;-68
2022/01/29 07:36:30;;;;;;;3.10;2.80;;;;;;;;;;5028989;28;20534;-69
2022/01/29 07:38:58;;;;;;;3.30;3.00;;;;;;;;;;5025017;28;20240;-68
2022/01/29 07:41:27;;;;;;;3.30;3.00;;;;;;;;;;5006454;28;20298;-68
2022/01/29 07:43:59;;;;;;;3.33;3.03;;;;;;;;;;5007563;28;20214;-69
2022/01/29 07:46:28;;;;;;;3.10;2.90;;;;;;;;;;5003051;28;20290;-68
2022/01/29 07:48:58;;;;;;;3.40;3.10;;;;;;;;;;5004475;28;20199;-67
2022/01/29 07:51:28;;;;;;;3.17;2.87;;;;;;;;;;5003189;28;20226;-68
2022/01/29 07:53:58;;;;;;;3.50;3.20;;;;;;;;;;5006029;28;20243;-68
2022/01/29 07:56:26;;;;;;;3.23;3.03;;;;;;;;;;5006008;28;20211;-67
2022/01/29 07:58:58;;;;;;;3.40;3.00;;;;;;;;;;4997231;28;20234;-67
2022/01/29 08:01:30;;;;;;;3.33;3.03;;;;;;;;;;5002491;28;20430;-66
2022/01/29 08:04:00;;;;;;;3.27;2.97;;;;;;;;;;5005800;28;20538;-67
2022/01/29 08:06:31;;;;;;;3.20;2.90;;;;;;;;;;5004639;28;20824;-67
2022/01/29 08:09:03;;;;;;;3.57;3.27;;;;;;;;;;5000354;28;20756;-66
2022/01/29 08:11:32;;;;;;;4.03;3.40;;;;;;;;;;5004925;28;20212;-66
2022/01/29 08:14:01;;;;;;;3.20;2.90;;;;;;;;;;5004479;28;20262;-67
2022/01/29 08:16:30;;;;;;;3.00;2.67;;;;;;;;;;5002014;28;20565;-67
2022/01/29 08:19:00;;;;;;;3.30;3.00;;;;;;;;;;5004654;28;20219;-67
2022/01/29 08:21:28;;;;;;;3.23;2.93;;;;;;;;;;5000411;28;20643;-67
2022/01/29 08:24:00;;;;;;;3.40;3.03;;;;;;;;;;5005492;28;20222;-67
2022/01/29 08:26:32;;;;;;;4.60;3.47;;;;;;;;;;5007957;28;20553;-67
2022/01/29 08:29:04;;;;;;;3.63;3.33;;;;;;;;;;4999755;28;20208;-67
2022/01/29 08:31:33;;;;;;;3.73;2.53;;;;;;;;;;5005327;28;20203;-67
2022/01/29 08:34:05;;;;;;;3.20;2.90;;;;;;;;;;4998780;28;20235;-68
2022/01/29 08:36:36;;;;;;;3.10;2.80;;;;;;;;;;5000988;28;20228;-65
2022/01/29 08:39:06;;;;;;;3.43;3.07;;;;;;;;;;4990022;28;20982;-68
2022/01/29 08:41:35;;;;;;;3.57;2.97;;;;;;;;;;5011554;28;20684;-67
2022/01/29 08:44:12;;;;;;;3.40;3.10;;;;;;;;;;5022596;28;20207;-68
2022/01/29 08:46:40;;;;;;;2.83;2.57;;;;;;;;;;5016942;28;20237;-68
2022/01/29 08:49:09;;;;;;;3.03;2.77;;;;;;;;;;5018454;28;20206;-69
2022/01/29 08:51:40;;;;;;;2.73;2.53;;;;;;;;;;5019075;28;20192;-68
2022/01/29 08:54:15;;;;;;;3.03;2.70;;;;;;;;;;5007102;28;20305;-68
2022/01/29 08:56:45;;;;;;;3.27;2.70;;;;;;;;;;5034451;28;20215;-68
2022/01/29 08:59:15;;;;;;;2.93;2.70;;;;;;;;;;5021882;28;20222;-67
2022/01/29 09:01:47;;;;;;;2.83;2.50;;;;;;;;;;5024592;28;20222;-68
2022/01/29 09:04:20;;;;;;;3.27;2.93;;;;;;;;;;5010205;28;20506;-67
2022/01/29 09:06:49;;;;;;;3.87;2.73;;;;;;;;;;5012970;28;20214;-68
2022/01/29 09:09:24;;;;;;;2.70;2.50;;;;;;;;;;5020992;28;20273;-68
2022/01/29 09:11:59;;;;;;;2.47;2.20;;;;;;;;;;5015384;28;20214;-68
2022/01/29 09:14:30;;;;;;;3.30;3.00;;;;;;;;;;5026750;28;20277;-68
2022/01/29 09:17:00;;;;;;;7.30;2.83;;;;;;;;;;5018937;28;20206;-67
2022/01/29 09:19:30;;;;;;;2.87;2.67;;;;;;;;;;5022762;28;20206;-68
2022/01/29 09:22:02;;;;;;;2.83;2.63;;;;;;;;;;5013239;28;20592;-67
2022/01/29 09:24:33;;;;;;;2.70;2.50;;;;;;;;;;5005084;28;20200;-68
2022/01/29 09:27:17;;;;;;;2.53;2.33;;;;;;;;;;5019049;28;20710;-69
2022/01/29 09:29:44;;;;;;;3.20;2.90;;;;;;;;;;5026664;28;20655;-68
2022/01/29 09:32:14;;;;;;;3.20;2.90;;;;;;;;;;5026002;28;20211;-67
2022/01/29 09:34:43;;;;;;;4.00;2.70;;;;;;;;;;5025595;28;20206;-68
2022/01/29 09:37:13;;;;;;;3.20;2.90;;;;;;;;;;5022957;28;20230;-66
2022/01/29 09:39:42;;;;;;;2.97;2.70;;;;;;;;;;5023572;28;20239;-67
2022/01/29 09:42:14;;;;;;;3.07;2.70;;;;;;;;;;5025474;28;20211;-67
2022/01/29 09:44:47;;;;;;;3.17;2.87;;;;;;;;;;5021825;28;20740;-68
2022/01/29 09:47:17;;;;;;;3.43;2.53;;;;;;;;;;5020257;28;20211;-68
2022/01/29 09:49:46;;;;;;;3.53;3.03;;;;;;;;;;5013608;28;20281;-68
2022/01/29 09:52:19;;;;;;;5.13;3.50;;;;;;;;;;5011798;28;20218;-66
2022/01/29 09:54:51;;;;;;;4.17;3.00;;;;;;;;;;5011416;28;20207;-66
2022/01/29 09:57:21;;;;;;;3.43;2.80;;;;;;;;;;5022363;28;20202;-65
2022/01/29 09:59:53;;;;;;;3.53;3.00;;;;;;;;;;5025833;28;20214;-68
2022/01/29 10:02:23;;;;;;;5.07;3.40;;;;;;;;;;5022097;28;20203;-65
2022/01/29 10:04:58;;;;;;;5.47;3.40;;;;;;;;;;5024158;28;20225;-65
2022/01/29 10:07:33;;;;;;;4.23;3.00;;;;;;;;;;5027675;28;20699;-67
2022/01/29 10:10:16;;;;;;;5.17;3.10;;;;;;;;;;5016475;28;20203;-67
2022/01/29 10:12:47;;;;;;;4.23;2.87;;;;;;;;;;5021303;28;20933;-67
2022/01/29 10:15:22;;;;;;;5.80;3.13;;;;;;;;;;5030926;28;20210;-68
2022/01/29 10:17:53;;;;;;;4.50;3.20;;;;;;;;;;5010027;28;20206;-68
2022/01/29 10:20:30;;;;;;;6.97;3.10;;;;;;;;;;5036587;28;20802;-67
2022/01/29 10:23:03;;;;;;;4.27;2.97;;;;;;;;;;5019304;28;20223;-67
2022/01/29 10:25:41;;;;;;;10.57;4.03;;;;;;;;;;5031386;28;20200;-67
2022/01/29 10:28:17;;;;;;;6.03;3.33;;;;;;;;;;5025292;28;20282;-67
2022/01/29 10:30:52;;;;;;;6.23;3.50;;;;;;;;;;5024175;28;20195;-68
2022/01/29 10:33:22;;;;;;;9.70;3.57;;;;;;;;;;5025227;28;20222;-67
2022/01/29 10:35:55;;;;;;;4.63;3.37;;;;;;;;;;5021317;28;20226;-67
2022/01/29 10:38:29;;;;;;;3.80;3.40;;;;;;;;;;5009924;28;20297;-67
2022/01/29 10:41:26;;;;;;;5.50;3.60;;;;;;;;;;5014838;28;20230;-68
2022/01/29 10:44:22;;;;;;;7.17;4.10;;;;;;;;;;5015924;28;20203;-68
2022/01/29 10:46:59;;;;;;;7.30;4.37;;;;;;;;;;5019045;28;20257;-68
2022/01/29 10:49:35;;;;;;;7.77;4.27;;;;;;;;;;5025247;28;20203;-69
2022/01/29 10:52:08;;;;;;;6.47;4.07;;;;;;;;;;5023359;28;20241;-68
2022/01/29 10:54:59;;;;;;;6.50;3.93;;;;;;;;;;5013128;28;20207;-68
2022/01/29 10:57:47;;;;;;;5.17;3.60;;;;;;;;;;5020288;28;20215;-68
2022/01/29 11:00:20;;;;;;;5.00;3.63;;;;;;;;;;5021763;28;20207;-68
2022/01/29 11:02:51;;;;;;;5.80;4.23;;;;;;;;;;5018003;28;20198;-68
2022/01/29 11:05:25;;;;;;;6.03;4.20;;;;;;;;;;5024952;28;20207;-68
2022/01/29 11:07:57;;;;;;;4.63;3.77;;;;;;;;;;5029670;28;20214;-68
2022/01/29 11:10:29;;;;;;;4.43;3.57;;;;;;;;;;5021320;28;20715;-68
2022/01/29 11:13:07;;;;;;;4.37;3.67;;;;;;;;;;5022055;28;20240;-68
2022/01/29 11:15:34;;;;;;;3.73;3.23;;;;;;;;;;5023556;28;20297;-68
2022/01/29 11:18:02;;;;;;;4.20;3.17;;;;;;;;;;5026514;28;20205;-68
2022/01/29 11:20:38;;;;;;;3.37;2.87;;;;;;;;;;5025178;28;20706;-68
2022/01/29 11:23:10;;;;;;;3.83;3.20;;;;;;;;;;5022263;28;20291;-68
2022/01/29 11:25:39;;;;;;;4.10;3.07;;;;;;;;;;5027387;28;20195;-68
2022/01/29 11:28:12;;;;;;;3.10;2.60;;;;;;;;;;5032737;28;20207;-68
2022/01/29 11:30:47;;;;;;;5.10;3.00;;;;;;;;;;5025397;28;20219;-68
2022/01/29 11:33:19;;;;;;;5.87;2.43;;;;;;;;;;5023422;28;20222;-68
2022/01/29 11:35:57;;;;;;;6.13;2.97;;;;;;;;;;5025573;28;20222;-68
2022/01/29 11:38:33;;;;;;;2.57;2.37;;;;;;;;;;5025305;28;20560;-68
2022/01/29 11:41:16;;;;;;;5.30;3.00;;;;;;;;;;5025727;28;20318;-68
2022/01/29 11:43:46;;;;;;;2.50;2.30;;;;;;;;;;5025092;28;20192;-69
2022/01/29 11:46:32;;;;;;;2.60;2.27;;;;;;;;;;5024260;28;20201;-68
2022/01/29 11:49:21;;;;;;;2.40;2.20;;;;;;;;;;5023100;28;20199;-68
2022/01/29 11:51:56;;;;;;;2.90;2.23;;;;;;;;;;5025682;28;20553;-68
2022/01/29 11:54:29;;;;;;;3.43;2.33;;;;;;;;;;5025169;28;20209;-68
2022/01/29 11:57:08;;;;;;;3.90;2.30;;;;;;;;;;5036930;28;20194;-68
2022/01/29 11:59:36;;;;;;;3.23;2.27;;;;;;;;;;5012224;28;20241;-69
2022/01/29 12:02:18;;;;;;;2.83;2.40;;;;;;;;;;5029943;28;20284;-68
2022/01/29 12:04:56;;;;;;;2.80;1.90;;;;;;;;;;5025712;28;20199;-69
2022/01/29 12:07:38;;;;;;;2.70;2.10;;;;;;;;;;5028159;28;20549;-69
2022/01/29 12:10:14;;;;;;;3.80;2.40;;;;;;;;;;5015404;28;20203;-69
2022/01/29 12:13:12;;;;;;;2.77;2.00;;;;;;;;;;5023246;28;20242;-68
2022/01/29 12:15:45;;;;;;;2.40;2.20;;;;;;;;;;5032987;28;20685;-68
2022/01/29 12:18:27;;;;;;;3.00;2.20;;;;;;;;;;5026991;28;20636;-68
2022/01/29 12:21:00;;;;;;;2.00;1.80;;;;;;;;;;5026490;28;20656;-68
2022/01/29 12:23:31;;;;;;;3.17;2.20;;;;;;;;;;5010471;28;20627;-68
2022/01/29 12:26:03;;;;;;;3.10;2.13;;;;;;;;;;5030699;28;20629;-68
2022/01/29 12:28:46;;;;;;;3.97;2.33;;;;;;;;;;5027590;28;20532;-71
2022/01/29 12:31:21;;;;;;;3.93;2.20;;;;;;;;;;5014070;28;20273;-72
2022/01/29 12:33:50;;;;;;;4.30;2.43;;;;;;;;;;5026770;28;20222;-71
2022/01/29 12:36:21;;;;;;;4.93;2.37;;;;;;;;;;5044036;28;20203;-70
2022/01/29 12:38:51;;;;;;;3.30;2.30;;;;;;;;;;5031014;28;20969;-72
2022/01/29 12:41:34;;;;;;;2.33;1.80;;;;;;;;;;5035222;28;20219;-71
2022/01/29 12:44:08;;;;;;;2.47;1.80;;;;;;;;;;5033997;28;20205;-71
2022/01/29 12:46:46;;;;;;;3.37;1.90;;;;;;;;;;5031635;28;20589;-71
2022/01/29 12:49:16;;;;;;;2.60;1.90;;;;;;;;;;5031491;28;20471;-70
2022/01/29 12:51:57;;;;;;;3.73;2.20;;;;;;;;;;5033580;28;20716;-70
2022/01/29 12:54:34;;;;;;;3.57;1.90;;;;;;;;;;5037237;28;20634;-70
2022/01/29 12:57:06;;;;;;;3.97;1.80;;;;;;;;;;5017435;28;20215;-71
2022/01/29 12:59:34;;;;;;;2.60;2.17;;;;;;;;;;5042440;28;20632;-70
2022/01/29 13:02:26;;;;;;;2.13;1.77;;;;;;;;;;5030735;28;20211;-70
2022/01/29 13:05:01;;;;;;;35.57;7.57;;;;;;;;;;5034298;28;20654;-70
2022/01/29 13:07:34;;;;;;;63.53;14.27;;;;;;;;;;5015762;28;20203;-69
2022/01/29 13:10:06;;;;;;;67.20;13.53;;;;;;;;;;5031528;28;20210;-70
2022/01/29 13:12:43;;;;;;;47.80;12.60;;;;;;;;;;5029216;28;20211;-70
2022/01/29 13:15:14;;;;;;;31.20;9.90;;;;;;;;;;5026695;28;20217;-70
2022/01/29 13:17:44;;;;;;;36.77;9.50;;;;;;;;;;5031151;28;20532;-68
2022/01/29 13:20:17;;;;;;;38.07;8.63;;;;;;;;;;5033797;28;20203;-69
2022/01/29 13:22:48;;;;;;;38.10;7.70;;;;;;;;;;5026904;28;20234;-69
2022/01/29 13:25:18;;;;;;;20.27;7.13;;;;;;;;;;5018742;28;20669;-69
2022/01/29 13:27:52;;;;;;;27.43;6.97;;;;;;;;;;5028599;28;20211;-68
2022/01/29 13:30:27;;;;;;;20.10;6.70;;;;;;;;;;5019060;28;20268;-68
2022/01/29 13:33:14;;;;;;;20.80;6.00;;;;;;;;;;5022532;28;20220;-68
2022/01/29 13:35:53;;;;;;;19.47;5.73;;;;;;;;;;5027034;28;20226;-69
2022/01/29 13:38:29;;;;;;;14.77;5.67;;;;;;;;;;5020881;28;20203;-69
2022/01/29 13:41:02;;;;;;;17.83;5.07;;;;;;;;;;4999593;28;20319;-68
2022/01/29 13:43:43;;;;;;;14.77;4.40;;;;;;;;;;5013844;28;20229;-67
2022/01/29 13:46:27;;;;;;;13.77;4.60;;;;;;;;;;4997028;28;20826;-69
2022/01/29 13:49:02;;;;;;;10.57;4.50;;;;;;;;;;4999404;28;20197;-69
2022/01/29 13:51:39;;;;;;;10.73;4.30;;;;;;;;;;4997872;28;20206;-69
2022/01/29 13:54:26;;;;;;;11.77;3.93;;;;;;;;;;5006661;28;20199;-69
2022/01/29 13:57:06;;;;;;;11.77;4.17;;;;;;;;;;4995716;28;20223;-69
2022/01/29 13:59:46;;;;;;;8.87;3.43;;;;;;;;;;4989358;28;20217;-71
2022/01/29 14:02:15;;;;;;;7.43;2.77;;;;;;;;;;4997599;28;20291;-70
2022/01/29 14:04:50;;;;;;;11.90;3.23;;;;;;;;;;5006988;28;20239;-69
2022/01/29 14:07:30;;;;;;;8.53;4.07;;;;;;;;;;4999471;28;20254;-70
2022/01/29 14:10:17;;;;;;;5.93;3.70;;;;;;;;;;4996189;28;20251;-71
2022/01/29 14:12:49;;;;;;;6.20;3.87;;;;;;;;;;5001289;28;20213;-70
2022/01/29 14:15:19;;;;;;;8.03;3.70;;;;;;;;;;5009362;28;20226;-68
2022/01/29 14:17:48;;;;;;;4.97;2.90;;;;;;;;;;5005109;28;20216;-69
2022/01/29 14:20:23;;;;;;;11.63;3.70;;;;;;;;;;5005906;28;20223;-66
2022/01/29 14:23:03;;;;;;;8.67;3.23;;;;;;;;;;5001280;28;20233;-72
2022/01/29 14:25:33;;;;;;;6.33;3.17;;;;;;;;;;4998397;28;20212;-71
2022/01/29 14:28:04;;;;;;;8.00;3.23;;;;;;;;;;4991740;28;20305;-71
2022/01/29 14:30:34;;;;;;;4.93;2.90;;;;;;;;;;4998303;28;20216;-71
2022/01/29 14:33:07;;;;;;;6.07;2.90;;;;;;;;;;4994090;28;20536;-71
2022/01/29 14:35:35;;;;;;;4.57;2.50;;;;;;;;;;4996217;28;20256;-71
2022/01/29 14:38:05;;;;;;;5.83;2.87;;;;;;;;;;4996251;28;20231;-71
2022/01/29 14:40:53;;;;;;;5.57;2.60;;;;;;;;;;4999888;28;20614;-69
2022/01/29 14:43:24;;;;;;;4.13;2.20;;;;;;;;;;5000534;28;20219;-68
2022/01/29 14:45:58;;;;;;;5.17;2.93;;;;;;;;;;4995047;28;20704;-68
2022/01/29 14:48:33;;;;;;;3.30;2.50;;;;;;;;;;5004258;28;20207;-69
2022/01/29 14:51:14;;;;;;;4.47;2.43;;;;;;;;;;4982290;28;20305;-69
2022/01/29 14:53:50;;;;;;;4.37;2.70;;;;;;;;;;4997305;28;20219;-68
2022/01/29 14:56:22;;;;;;;8.50;2.47;;;;;;;;;;4999629;28;20204;-68
2022/01/29 14:58:57;;;;;;;3.67;2.10;;;;;;;;;;4997807;28;20639;-68
2022/01/29 15:01:30;;;;;;;3.43;2.00;;;;;;;;;;4996438;28;20676;-70
2022/01/29 15:04:02;;;;;;;3.43;2.53;;;;;;;;;;4985546;28;20594;-71
2022/01/29 15:06:29;;;;;;;3.67;2.10;;;;;;;;;;4999107;28;20250;-68
2022/01/29 15:09:02;;;;;;;4.23;2.40;;;;;;;;;;5000129;28;20195;-68
2022/01/29 15:11:35;;;;;;;3.87;1.97;;;;;;;;;;4995851;28;20204;-71
2022/01/29 15:14:08;;;;;;;3.07;2.60;;;;;;;;;;5002616;28;20267;-71
2022/01/29 15:16:38;;;;;;;5.87;2.53;;;;;;;;;;5003705;28;20196;-71
2022/01/29 15:19:09;;;;;;;4.13;2.20;;;;;;;;;;5001777;28;20253;-72
2022/01/29 15:21:41;;;;;;;4.40;2.33;;;;;;;;;;5003378;28;20242;-73
2022/01/29 15:24:14;;;;;;;2.93;1.90;;;;;;;;;;5003317;28;20641;-72
2022/01/29 15:26:44;;;;;;;4.63;2.30;;;;;;;;;;5004732;28;20216;-72
2022/01/29 15:29:12;;;;;;;4.00;1.90;;;;;;;;;;5000415;28;20200;-72